KGFA/GFA METAR and TAF weather

Enter ICAO airport designator
Station Type Date Time Source
KGFA METAR 2020/10/29 16:58 UTC NOAA

KGFA 291658Z AUTO 23020G29KT 10SM FEW220 13/00 A2999 RMK AO2 PK WND 23029/45 SLP169 T01250004 $


Station Type Date Time Source
KGFA Decoded METAR 2020/10/29 16:58 UTC NOAA

Malmstrom Air Force Base, MT, United States (KGFA) 47-30N 111-11W
Oct 29, 2020 - 12:58 PM EDT / 2020.10.29 1658 UTC
Wind: from the SW (230 degrees) at 23 MPH (20 KT) gusting to 33 MPH (29 KT):0
Visibility: 10 mile(s):0
Sky conditions: mostly clear
Temperature: 54.5 F (12.5 C)
Dew Point: 32.7 F (0.4 C)
Relative Humidity: 43%
Pressure (altimeter): 29.99 in. Hg (1015 hPa)
ob: KGFA 291658Z AUTO 23020G29KT 10SM FEW220 13/00 A2999 RMK AO2 PK WND 23029/45 SLP169 T01250004
cycle: 17

Station Type Date Time Source
KGFA TAF 2020/10/29 11:09 UTC NOAA

TAF KGFA 291107Z 2911/3017 23012G18KT 9999 FEW075 SCT200 QNH2994INS
BECMG 2919/2920 26015G25KT 9999 SCT065 QNH2999INS
TEMPO 2920/2924 25020G30KT 530009
BECMG 2923/2924 VRB06KT 9999 FEW045 QNH3000INS TX17/2920Z TN05/3006Z

Example: see airport list